No particular awareness of the weather is required.    There are no Weather-warnings


Meteo18 Weather Cam more information Meteo18 Weather Cam


Thunder radar more information blitzortung!


Rain radar more information rain snow radar


Visit our other weather sites:

Template documentation
and downloads

And another site



Weather Underground History page Text

Daily Summary for April 14, 2017 Units:  Both    English   Metric
« Previous Day
Next Day »
Daily Weekly Monthly Yearly Custom
  High: Low: Average:
Temperature: TemperatureC °F /  -17.8 °C 8.0 °F /  -13.3 °C 12.7 °F /  -10.7 °C
Dew Point: DewpointC °F /  -17.8 °C 5.5 °F /  -14.7 °C 7.1 °F /  -13.8 °C
Humidity: Humidity % 48 % 70 %
Wind Speed: WindSpeedKMH mph /  0 km/h - 1.9 mph /  3.1 km/h
Wind Gust: WindSpeedGustKMH mph /  0 km/h - -
Wind:- - West
Pressure: PressurehPa in /  0 hPa 1017.2 in /  34442.4 hPa -
Precipitation: 0.0 in /  0 mm    
Historical Graphs
 
 
Tabular Data for April 14, 2017
Time Temperature Dew Point Pressure Wind Wind Speed Wind Gust Humidity Rainfall Rate (Hourly)
TemperatureC °F /  -17.8 °C DewpointC °F /  -17.8 °C PressurehPa in /  0 hPa Calm     Humidity % HourlyPrecipMM in /  0 mm
00:02 9.3 °F /  -12.6 °C 5.8 °F /  -14.6 °C 1018.8 in /  34496.6 hPa Calm   1.6 mph /  2.6 km/h 79 % 0.0 in /  0 mm
00:07 9.2 °F /  -12.7 °C 5.7 °F /  -14.6 °C 1018.8 in /  34496.6 hPa Calm   1.6 mph /  2.6 km/h 79 % 0.0 in /  0 mm
00:12 9.1 °F /  -12.7 °C 5.7 °F /  -14.6 °C 1018.8 in /  34496.6 hPa Calm   1.6 mph /  2.6 km/h 79 % 0.0 in /  0 mm
00:17 9.1 °F /  -12.7 °C 5.7 °F /  -14.6 °C 1018.8 in /  34496.6 hPa Calm   1.6 mph /  2.6 km/h 79 % 0.0 in /  0 mm
00:22 8.9 °F /  -12.8 °C 5.6 °F /  -14.7 °C 1018.5 in /  34486.4 hPa Calm   1.6 mph /  2.6 km/h 80 % 0.0 in /  0 mm
00:32 8.9 °F /  -12.8 °C 5.6 °F /  -14.7 °C 1018.5 in /  34486.4 hPa Calm   1.6 mph /  2.6 km/h 80 % 0.0 in /  0 mm
00:42 8.8 °F /  -12.9 °C 5.5 °F /  -14.7 °C 1018.5 in /  34486.4 hPa Calm   1.6 mph /  2.6 km/h 80 % 0.0 in /  0 mm
00:52 8.6 °F /  -13 °C 5.5 °F /  -14.7 °C 1018.8 in /  34496.6 hPa Calm   3.2 mph /  5.1 km/h 81 % 0.0 in /  0 mm
00:57 8.6 °F /  -13 °C 5.5 °F /  -14.7 °C 1018.8 in /  34496.6 hPa Calm   1.6 mph /  2.6 km/h 81 % 0.0 in /  0 mm
01:02 8.7 °F /  -12.9 °C 5.6 °F /  -14.7 °C 1018.5 in /  34486.4 hPa Calm     81 % 0.0 in /  0 mm
01:07 8.9 °F /  -12.8 °C 5.6 °F /  -14.7 °C 1018.5 in /  34486.4 hPa Calm   1.6 mph /  2.6 km/h 80 % 0.0 in /  0 mm
01:12 9.2 °F /  -12.7 °C 5.9 °F /  -14.5 °C 1018.5 in /  34486.4 hPa NNW 1.6 mph /  2.6 km/h 1.6 mph /  2.6 km/h 80 % 0.0 in /  0 mm
01:17 9.3 °F /  -12.6 °C 5.8 °F /  -14.6 °C 1018.5 in /  34486.4 hPa Calm   1.6 mph /  2.6 km/h 79 % 0.0 in /  0 mm
01:22 9.4 °F /  -12.6 °C 5.9 °F /  -14.5 °C 1018.5 in /  34486.4 hPa NNW 1.6 mph /  2.6 km/h 1.6 mph /  2.6 km/h 79 % 0.0 in /  0 mm
01:27 9.6 °F /  -12.4 °C 6.1 °F /  -14.4 °C 1018.5 in /  34486.4 hPa Calm   1.6 mph /  2.6 km/h 79 % 0.0 in /  0 mm
01:32 9.5 °F /  -12.5 °C 6.0 °F /  -14.4 °C 1018.5 in /  34486.4 hPa Calm   1.6 mph /  2.6 km/h 79 % 0.0 in /  0 mm
01:42 9.7 °F /  -12.4 °C 6.2 °F /  -14.3 °C 1018.5 in /  34486.4 hPa Calm   1.6 mph /  2.6 km/h 79 % 0.0 in /  0 mm
01:47 9.6 °F /  -12.4 °C 6.3 °F /  -14.3 °C 1018.5 in /  34486.4 hPa Calm   1.6 mph /  2.6 km/h 80 % 0.0 in /  0 mm
01:52 9.4 °F /  -12.6 °C 6.3 °F /  -14.3 °C 1018.5 in /  34486.4 hPa Calm   1.6 mph /  2.6 km/h 81 % 0.0 in /  0 mm
01:57 9.4 °F /  -12.6 °C 6.5 °F /  -14.2 °C 1018.5 in /  34486.4 hPa Calm   1.6 mph /  2.6 km/h 82 % 0.0 in /  0 mm
02:02 9.4 °F /  -12.6 °C 6.5 °F /  -14.2 °C 1018.5 in /  34486.4 hPa Calm   1.6 mph /  2.6 km/h 82 % 0.0 in /  0 mm
02:07 9.4 °F /  -12.6 °C 6.3 °F /  -14.3 °C 1018.5 in /  34486.4 hPa Calm   1.6 mph /  2.6 km/h 81 % 0.0 in /  0 mm
02:12 9.6 °F /  -12.4 °C 6.7 °F /  -14.1 °C 1018.2 in /  34476.3 hPa Calm   1.6 mph /  2.6 km/h 82 % 0.0 in /  0 mm
02:17 9.4 °F /  -12.6 °C 6.7 °F /  -14.1 °C 1018.2 in /  34476.3 hPa Calm     83 % 0.0 in /  0 mm
02:22 9.3 °F /  -12.6 °C 6.4 °F /  -14.2 °C 1018.2 in /  34476.3 hPa Calm     82 % 0.0 in /  0 mm
02:32 9.6 °F /  -12.4 °C 6.9 °F /  -13.9 °C 1018.2 in /  34476.3 hPa Calm     83 % 0.0 in /  0 mm
02:37 9.6 °F /  -12.4 °C 6.9 °F /  -13.9 °C 1018.2 in /  34476.3 hPa Calm     83 % 0.0 in /  0 mm
02:42 9.5 °F /  -12.5 °C 6.8 °F /  -14 °C 1017.8 in /  34462.7 hPa NW 1.6 mph /  2.6 km/h 1.6 mph /  2.6 km/h 83 % 0.0 in /  0 mm
02:47 9.6 °F /  -12.4 °C 6.5 °F /  -14.2 °C 1017.8 in /  34462.7 hPa Calm   1.6 mph /  2.6 km/h 81 % 0.0 in /  0 mm
02:52 9.8 °F /  -12.3 °C 6.5 °F /  -14.2 °C 1017.8 in /  34462.7 hPa Calm   1.6 mph /  2.6 km/h 80 % 0.0 in /  0 mm
03:02 9.7 °F /  -12.4 °C 6.4 °F /  -14.2 °C 1017.8 in /  34462.7 hPa Calm   3.2 mph /  5.1 km/h 80 % 0.0 in /  0 mm
03:07 10.0 °F /  -12.2 °C 6.3 °F /  -14.3 °C 1017.8 in /  34462.7 hPa Calm   3.2 mph /  5.1 km/h 78 % 0.0 in /  0 mm
03:12 10.2 °F /  -12.1 °C 6.3 °F /  -14.3 °C 1017.8 in /  34462.7 hPa Calm   3.2 mph /  5.1 km/h 77 % 0.0 in /  0 mm
03:17 10.2 °F /  -12.1 °C 6.3 °F /  -14.3 °C 1017.8 in /  34462.7 hPa North 1.6 mph /  2.6 km/h 3.2 mph /  5.1 km/h 77 % 0.0 in /  0 mm
03:22 10.0 °F /  -12.2 °C 6.3 °F /  -14.3 °C 1017.8 in /  34462.7 hPa Calm   3.2 mph /  5.1 km/h 78 % 0.0 in /  0 mm
03:32 9.7 °F /  -12.4 °C 6.2 °F /  -14.3 °C 1017.8 in /  34462.7 hPa Calm   1.6 mph /  2.6 km/h 79 % 0.0 in /  0 mm
03:37 9.7 °F /  -12.4 °C 6.2 °F /  -14.3 °C 1017.8 in /  34462.7 hPa Calm   1.6 mph /  2.6 km/h 79 % 0.0 in /  0 mm
03:42 9.7 °F /  -12.4 °C 6.4 °F /  -14.2 °C 1017.8 in /  34462.7 hPa Calm   1.6 mph /  2.6 km/h 80 % 0.0 in /  0 mm
03:52 9.3 °F /  -12.6 °C 6.2 °F /  -14.3 °C 1017.8 in /  34462.7 hPa Calm   1.6 mph /  2.6 km/h 81 % 0.0 in /  0 mm
04:02 8.9 °F /  -12.8 °C 6.2 °F /  -14.3 °C 1017.8 in /  34462.7 hPa Calm   1.6 mph /  2.6 km/h 83 % 0.0 in /  0 mm
04:07 8.8 °F /  -12.9 °C 6.2 °F /  -14.3 °C 1017.8 in /  34462.7 hPa Calm   1.6 mph /  2.6 km/h 84 % 0.0 in /  0 mm
04:12 8.7 °F /  -12.9 °C 6.1 °F /  -14.4 °C 1017.8 in /  34462.7 hPa Calm   1.6 mph /  2.6 km/h 84 % 0.0 in /  0 mm
04:17 8.7 °F /  -12.9 °C 6.1 °F /  -14.4 °C 1017.8 in /  34462.7 hPa Calm   1.6 mph /  2.6 km/h 84 % 0.0 in /  0 mm
04:22 8.7 °F /  -12.9 °C 6.1 °F /  -14.4 °C 1017.8 in /  34462.7 hPa Calm   1.6 mph /  2.6 km/h 84 % 0.0 in /  0 mm
04:32 8.7 °F /  -12.9 °C 6.3 °F /  -14.3 °C 1017.8 in /  34462.7 hPa Calm     85 % 0.0 in /  0 mm
04:42 8.7 °F /  -12.9 °C 6.1 °F /  -14.4 °C 1017.8 in /  34462.7 hPa Calm     84 % 0.0 in /  0 mm
04:52 8.7 °F /  -12.9 °C 6.1 °F /  -14.4 °C 1017.8 in /  34462.7 hPa Calm     84 % 0.0 in /  0 mm
04:57 8.6 °F /  -13 °C 6.0 °F /  -14.4 °C 1017.8 in /  34462.7 hPa Calm     84 % 0.0 in /  0 mm
05:02 8.6 °F /  -13 °C 6.2 °F /  -14.3 °C 1017.8 in /  34462.7 hPa Calm     85 % 0.0 in /  0 mm
05:12 8.4 °F /  -13.1 °C 6.0 °F /  -14.4 °C 1017.8 in /  34462.7 hPa Calm     85 % 0.0 in /  0 mm
05:17 8.5 °F /  -13.1 °C 6.1 °F /  -14.4 °C 1017.8 in /  34462.7 hPa Calm     85 % 0.0 in /  0 mm
05:22 8.6 °F /  -13 °C 6.0 °F /  -14.4 °C 1017.5 in /  34452.6 hPa Calm     84 % 0.0 in /  0 mm
05:27 8.7 °F /  -12.9 °C 6.1 °F /  -14.4 °C 1017.5 in /  34452.6 hPa Calm     84 % 0.0 in /  0 mm
05:32 8.6 °F /  -13 °C 6.0 °F /  -14.4 °C 1017.5 in /  34452.6 hPa Calm     84 % 0.0 in /  0 mm
05:42 8.4 °F /  -13.1 °C 6.0 °F /  -14.4 °C 1017.5 in /  34452.6 hPa Calm     85 % 0.0 in /  0 mm
05:47 8.4 °F /  -13.1 °C 6.2 °F /  -14.3 °C 1017.5 in /  34452.6 hPa Calm     86 % 0.0 in /  0 mm
05:52 8.5 °F /  -13.1 °C 6.1 °F /  -14.4 °C 1017.5 in /  34452.6 hPa Calm     85 % 0.0 in /  0 mm
05:57 8.5 °F /  -13.1 °C 6.1 °F /  -14.4 °C 1017.5 in /  34452.6 hPa Calm     85 % 0.0 in /  0 mm
06:02 8.5 °F /  -13.1 °C 6.1 °F /  -14.4 °C 1017.5 in /  34452.6 hPa Calm     85 % 0.0 in /  0 mm
06:12 8.6 °F /  -13 °C 6.0 °F /  -14.4 °C 1017.5 in /  34452.6 hPa Calm     84 % 0.0 in /  0 mm
06:17 8.4 °F /  -13.1 °C 5.9 °F /  -14.5 °C 1017.5 in /  34452.6 hPa Calm     84 % 0.0 in /  0 mm
06:22 8.3 °F /  -13.2 °C 5.9 °F /  -14.5 °C 1017.5 in /  34452.6 hPa Calm     85 % 0.0 in /  0 mm
06:27 8.2 °F /  -13.2 °C 5.8 °F /  -14.6 °C 1017.5 in /  34452.6 hPa Calm     85 % 0.0 in /  0 mm
06:32 8.2 °F /  -13.2 °C 6.0 °F /  -14.4 °C 1017.5 in /  34452.6 hPa Calm     86 % 0.0 in /  0 mm
06:37 8.2 °F /  -13.2 °C 6.0 °F /  -14.4 °C 1017.5 in /  34452.6 hPa Calm     86 % 0.0 in /  0 mm
06:42 8.1 °F /  -13.3 °C 6.1 °F /  -14.4 °C 1017.5 in /  34452.6 hPa Calm     87 % 0.0 in /  0 mm
06:47 8.0 °F /  -13.3 °C 6.0 °F /  -14.4 °C 1017.8 in /  34462.7 hPa Calm     87 % 0.0 in /  0 mm
06:52 8.1 °F /  -13.3 °C 6.1 °F /  -14.4 °C 1017.8 in /  34462.7 hPa Calm     87 % 0.0 in /  0 mm
06:57 8.1 °F /  -13.3 °C 6.2 °F /  -14.3 °C 1017.8 in /  34462.7 hPa Calm     88 % 0.0 in /  0 mm
07:02 8.2 °F /  -13.2 °C 6.2 °F /  -14.3 °C 1017.8 in /  34462.7 hPa Calm     87 % 0.0 in /  0 mm
07:07 8.3 °F /  -13.2 °C 6.3 °F /  -14.3 °C 1017.8 in /  34462.7 hPa Calm     87 % 0.0 in /  0 mm
07:12 8.3 °F /  -13.2 °C 6.3 °F /  -14.3 °C 1017.8 in /  34462.7 hPa Calm     87 % 0.0 in /  0 mm
07:17 8.3 °F /  -13.2 °C 6.3 °F /  -14.3 °C 1017.8 in /  34462.7 hPa Calm     87 % 0.0 in /  0 mm
07:22 8.4 °F /  -13.1 °C 6.2 °F /  -14.3 °C 1017.8 in /  34462.7 hPa Calm     86 % 0.0 in /  0 mm
07:27 8.5 °F /  -13.1 °C 6.3 °F /  -14.3 °C 1017.8 in /  34462.7 hPa Calm     86 % 0.0 in /  0 mm
07:32 8.6 °F /  -13 °C 6.4 °F /  -14.2 °C 1017.8 in /  34462.7 hPa Calm     86 % 0.0 in /  0 mm
07:37 8.6 °F /  -13 °C 6.6 °F /  -14.1 °C 1018.2 in /  34476.3 hPa Calm     87 % 0.0 in /  0 mm
07:42 8.6 °F /  -13 °C 6.6 °F /  -14.1 °C 1018.2 in /  34476.3 hPa Calm     87 % 0.0 in /  0 mm
07:52 8.6 °F /  -13 °C 6.6 °F /  -14.1 °C 1018.2 in /  34476.3 hPa Calm     87 % 0.0 in /  0 mm
07:57 8.6 °F /  -13 °C 6.6 °F /  -14.1 °C 1018.2 in /  34476.3 hPa Calm     87 % 0.0 in /  0 mm
08:02 8.7 °F /  -12.9 °C 6.7 °F /  -14.1 °C 1018.2 in /  34476.3 hPa Calm     87 % 0.0 in /  0 mm
08:07 8.8 °F /  -12.9 °C 6.8 °F /  -14 °C 1018.2 in /  34476.3 hPa Calm     87 % 0.0 in /  0 mm
08:12 8.8 °F /  -12.9 °C 6.8 °F /  -14 °C 1018.2 in /  34476.3 hPa Calm     87 % 0.0 in /  0 mm
08:17 8.9 °F /  -12.8 °C 6.9 °F /  -13.9 °C 1018.2 in /  34476.3 hPa Calm     87 % 0.0 in /  0 mm
08:22 9.1 °F /  -12.7 °C 7.1 °F /  -13.8 °C 1018.2 in /  34476.3 hPa Calm     87 % 0.0 in /  0 mm
08:27 9.2 °F /  -12.7 °C 7.1 °F /  -13.8 °C 1018.2 in /  34476.3 hPa Calm     87 % 0.0 in /  0 mm
08:32 9.3 °F /  -12.6 °C 6.9 °F /  -13.9 °C 1018.5 in /  34486.4 hPa Calm     85 % 0.0 in /  0 mm
08:37 9.5 °F /  -12.5 °C 7.1 °F /  -13.8 °C 1018.2 in /  34476.3 hPa Calm     85 % 0.0 in /  0 mm
08:42 9.6 °F /  -12.4 °C 7.0 °F /  -13.9 °C 1018.5 in /  34486.4 hPa Calm     84 % 0.0 in /  0 mm
08:52 9.7 °F /  -12.4 °C 7.0 °F /  -13.9 °C 1018.5 in /  34486.4 hPa Calm     83 % 0.0 in /  0 mm
08:57 9.8 °F /  -12.3 °C 7.1 °F /  -13.8 °C 1018.5 in /  34486.4 hPa Calm     83 % 0.0 in /  0 mm
09:02 10.0 °F /  -12.2 °C 7.2 °F /  -13.8 °C 1018.5 in /  34486.4 hPa Calm     83 % 0.0 in /  0 mm
09:12 10.3 °F /  -12.1 °C 7.7 °F /  -13.5 °C 1018.5 in /  34486.4 hPa Calm     84 % 0.0 in /  0 mm
09:17 10.4 °F /  -12 °C 7.6 °F /  -13.6 °C 1018.5 in /  34486.4 hPa Calm     83 % 0.0 in /  0 mm
09:22 10.5 °F /  -11.9 °C 7.6 °F /  -13.6 °C 1018.5 in /  34486.4 hPa Calm     82 % 0.0 in /  0 mm
09:32 10.9 °F /  -11.7 °C 7.8 °F /  -13.4 °C 1018.5 in /  34486.4 hPa Calm     81 % 0.0 in /  0 mm
09:37 11.0 °F /  -11.7 °C 7.5 °F /  -13.6 °C 1018.5 in /  34486.4 hPa Calm     79 % 0.0 in /  0 mm
09:42 11.1 °F /  -11.6 °C 7.6 °F /  -13.6 °C 1018.5 in /  34486.4 hPa SW 3.2 mph /  5.1 km/h 4.8 mph /  7.7 km/h 79 % 0.0 in /  0 mm
09:52 11.3 °F /  -11.5 °C 7.6 °F /  -13.6 °C 1018.5 in /  34486.4 hPa SW 1.6 mph /  2.6 km/h 4.8 mph /  7.7 km/h 78 % 0.0 in /  0 mm
09:57 11.5 °F /  -11.4 °C 7.8 °F /  -13.4 °C 1018.5 in /  34486.4 hPa Calm   3.2 mph /  5.1 km/h 78 % 0.0 in /  0 mm
10:02 11.8 °F /  -11.2 °C 7.9 °F /  -13.4 °C 1018.5 in /  34486.4 hPa Calm   3.2 mph /  5.1 km/h 77 % 0.0 in /  0 mm
10:07 11.9 °F /  -11.2 °C 7.4 °F /  -13.7 °C 1018.8 in /  34496.6 hPa South 3.2 mph /  5.1 km/h 3.2 mph /  5.1 km/h 74 % 0.0 in /  0 mm
10:12 11.9 °F /  -11.2 °C 7.2 °F /  -13.8 °C 1018.8 in /  34496.6 hPa SW 4.8 mph /  7.7 km/h 4.8 mph /  7.7 km/h 73 % 0.0 in /  0 mm
10:17 12.0 °F /  -11.1 °C 7.1 °F /  -13.8 °C 1018.8 in /  34496.6 hPa SW 4.8 mph /  7.7 km/h 6.4 mph /  10.3 km/h 72 % 0.0 in /  0 mm
10:22 12.0 °F /  -11.1 °C 7.3 °F /  -13.7 °C 1018.8 in /  34496.6 hPa SSW 1.6 mph /  2.6 km/h 6.4 mph /  10.3 km/h 73 % 0.0 in /  0 mm
10:27 12.0 °F /  -11.1 °C 7.1 °F /  -13.8 °C 1018.8 in /  34496.6 hPa SW 4.8 mph /  7.7 km/h 6.4 mph /  10.3 km/h 72 % 0.0 in /  0 mm
10:32 12.2 °F /  -11 °C 7.5 °F /  -13.6 °C 1018.8 in /  34496.6 hPa WSW 1.6 mph /  2.6 km/h 8.0 mph /  12.9 km/h 73 % 0.0 in /  0 mm
10:37 12.2 °F /  -11 °C 7.5 °F /  -13.6 °C 1018.8 in /  34496.6 hPa WSW 4.8 mph /  7.7 km/h 8.0 mph /  12.9 km/h 73 % 0.0 in /  0 mm
10:42 12.3 °F /  -10.9 °C 7.6 °F /  -13.6 °C 1018.8 in /  34496.6 hPa WSW 4.8 mph /  7.7 km/h 8.0 mph /  12.9 km/h 73 % 0.0 in /  0 mm
10:47 12.7 °F /  -10.7 °C 8.0 °F /  -13.3 °C 1018.8 in /  34496.6 hPa Calm   6.4 mph /  10.3 km/h 73 % 0.0 in /  0 mm
10:52 12.9 °F /  -10.6 °C 7.8 °F /  -13.4 °C 1018.8 in /  34496.6 hPa SW 3.2 mph /  5.1 km/h 6.4 mph /  10.3 km/h 71 % 0.0 in /  0 mm
10:57 13.1 °F /  -10.5 °C 7.5 °F /  -13.6 °C 1018.8 in /  34496.6 hPa WSW 3.2 mph /  5.1 km/h 6.4 mph /  10.3 km/h 69 % 0.0 in /  0 mm
11:02 13.2 °F /  -10.4 °C 7.8 °F /  -13.4 °C 1018.8 in /  34496.6 hPa Calm   6.4 mph /  10.3 km/h 70 % 0.0 in /  0 mm
11:07 13.4 °F /  -10.3 °C 7.8 °F /  -13.4 °C 1018.8 in /  34496.6 hPa SSE 1.6 mph /  2.6 km/h 6.4 mph /  10.3 km/h 69 % 0.0 in /  0 mm
11:12 13.5 °F /  -10.3 °C 7.7 °F /  -13.5 °C 1018.8 in /  34496.6 hPa Calm   6.4 mph /  10.3 km/h 68 % 0.0 in /  0 mm
11:17 13.7 °F /  -10.2 °C 8.1 °F /  -13.3 °C 1018.8 in /  34496.6 hPa Calm   6.4 mph /  10.3 km/h 69 % 0.0 in /  0 mm
11:22 14.1 °F /  -9.9 °C 8.3 °F /  -13.2 °C 1018.8 in /  34496.6 hPa ESE 3.2 mph /  5.1 km/h 6.4 mph /  10.3 km/h 68 % 0.0 in /  0 mm
11:27 14.3 °F /  -9.8 °C 8.3 °F /  -13.2 °C 1018.8 in /  34496.6 hPa SW 3.2 mph /  5.1 km/h 6.4 mph /  10.3 km/h 67 % 0.0 in /  0 mm
11:32 14.5 °F /  -9.7 °C 8.0 °F /  -13.3 °C 1018.8 in /  34496.6 hPa SSW 3.2 mph /  5.1 km/h 8.0 mph /  12.9 km/h 65 % 0.0 in /  0 mm
11:37 14.6 °F /  -9.7 °C 8.5 °F /  -13.1 °C 1018.8 in /  34496.6 hPa South 4.8 mph /  7.7 km/h 9.7 mph /  15.6 km/h 67 % 0.0 in /  0 mm
11:42 14.7 °F /  -9.6 °C 8.2 °F /  -13.2 °C 1018.8 in /  34496.6 hPa WSW 1.6 mph /  2.6 km/h 9.7 mph /  15.6 km/h 65 % 0.0 in /  0 mm
11:52 15.2 °F /  -9.3 °C 8.9 °F /  -12.8 °C 1018.8 in /  34496.6 hPa WNW 1.6 mph /  2.6 km/h 6.4 mph /  10.3 km/h 66 % 0.0 in /  0 mm
11:57 15.2 °F /  -9.3 °C 8.4 °F /  -13.1 °C 1018.8 in /  34496.6 hPa West 1.6 mph /  2.6 km/h 6.4 mph /  10.3 km/h 64 % 0.0 in /  0 mm
12:02 15.5 °F /  -9.2 °C 8.7 °F /  -12.9 °C 1018.8 in /  34496.6 hPa Calm   6.4 mph /  10.3 km/h 64 % 0.0 in /  0 mm
12:07 15.9 °F /  -8.9 °C 8.9 °F /  -12.8 °C 1018.8 in /  34496.6 hPa SW 1.6 mph /  2.6 km/h 6.4 mph /  10.3 km/h 63 % 0.0 in /  0 mm
12:12 15.9 °F /  -8.9 °C 8.6 °F /  -13 °C 1018.8 in /  34496.6 hPa Calm   4.8 mph /  7.7 km/h 62 % 0.0 in /  0 mm
12:17 15.9 °F /  -8.9 °C 8.6 °F /  -13 °C 1018.8 in /  34496.6 hPa Calm   4.8 mph /  7.7 km/h 62 % 0.0 in /  0 mm
12:22 16.0 °F /  -8.9 °C 9.0 °F /  -12.8 °C 1018.8 in /  34496.6 hPa NW 1.6 mph /  2.6 km/h 4.8 mph /  7.7 km/h 63 % 0.0 in /  0 mm
12:27 16.1 °F /  -8.8 °C 8.6 °F /  -13 °C 1018.8 in /  34496.6 hPa Calm   4.8 mph /  7.7 km/h 61 % 0.0 in /  0 mm
12:32 16.2 °F /  -8.8 °C 8.2 °F /  -13.2 °C 1018.5 in /  34486.4 hPa West 3.2 mph /  5.1 km/h 6.4 mph /  10.3 km/h 59 % 0.0 in /  0 mm
12:42 16.3 °F /  -8.7 °C 8.3 °F /  -13.2 °C 1018.5 in /  34486.4 hPa NE 1.6 mph /  2.6 km/h 4.8 mph /  7.7 km/h 59 % 0.0 in /  0 mm
12:52 16.8 °F /  -8.4 °C 9.5 °F /  -12.5 °C 1018.5 in /  34486.4 hPa Calm   4.8 mph /  7.7 km/h 62 % 0.0 in /  0 mm
12:57 16.8 °F /  -8.4 °C 8.7 °F /  -12.9 °C 1018.5 in /  34486.4 hPa NE 1.6 mph /  2.6 km/h 4.8 mph /  7.7 km/h 59 % 0.0 in /  0 mm
13:02 16.3 °F /  -8.7 °C 8.3 °F /  -13.2 °C 1018.5 in /  34486.4 hPa Calm   9.7 mph /  15.6 km/h 59 % 0.0 in /  0 mm
13:07 16.5 °F /  -8.6 °C 8.5 °F /  -13.1 °C 1018.5 in /  34486.4 hPa North 1.6 mph /  2.6 km/h 9.7 mph /  15.6 km/h 59 % 0.0 in /  0 mm
13:12 16.4 °F /  -8.7 °C 8.4 °F /  -13.1 °C 1018.5 in /  34486.4 hPa NE 3.2 mph /  5.1 km/h 9.7 mph /  15.6 km/h 59 % 0.0 in /  0 mm
13:17 16.2 °F /  -8.8 °C 8.4 °F /  -13.1 °C 1018.5 in /  34486.4 hPa Calm   6.4 mph /  10.3 km/h 60 % 0.0 in /  0 mm
13:22 16.3 °F /  -8.7 °C 8.3 °F /  -13.2 °C 1018.5 in /  34486.4 hPa Calm   6.4 mph /  10.3 km/h 59 % 0.0 in /  0 mm
13:27 16.4 °F /  -8.7 °C 8.4 °F /  -13.1 °C 1018.5 in /  34486.4 hPa NNW 4.8 mph /  7.7 km/h 6.4 mph /  10.3 km/h 59 % 0.0 in /  0 mm
13:32 16.2 °F /  -8.8 °C 8.4 °F /  -13.1 °C 1018.5 in /  34486.4 hPa NNW 4.8 mph /  7.7 km/h 9.7 mph /  15.6 km/h 60 % 0.0 in /  0 mm
13:37 15.9 °F /  -8.9 °C 7.9 °F /  -13.4 °C 1018.5 in /  34486.4 hPa NNE 8.0 mph /  12.9 km/h 11.3 mph /  18.2 km/h 59 % 0.0 in /  0 mm
13:42 15.8 °F /  -9 °C 8.0 °F /  -13.3 °C 1018.5 in /  34486.4 hPa Calm   11.3 mph /  18.2 km/h 60 % 0.0 in /  0 mm
13:47 15.9 °F /  -8.9 °C 7.9 °F /  -13.4 °C 1018.5 in /  34486.4 hPa WNW 1.6 mph /  2.6 km/h 11.3 mph /  18.2 km/h 59 % 0.0 in /  0 mm
13:52 16.1 °F /  -8.8 °C 7.6 °F /  -13.6 °C 1018.5 in /  34486.4 hPa NE 4.8 mph /  7.7 km/h 9.7 mph /  15.6 km/h 57 % 0.0 in /  0 mm
13:57 16.1 °F /  -8.8 °C 7.6 °F /  -13.6 °C 1018.5 in /  34486.4 hPa Calm   8.0 mph /  12.9 km/h 57 % 0.0 in /  0 mm
14:02 16.3 °F /  -8.7 °C 8.3 °F /  -13.2 °C 1018.5 in /  34486.4 hPa SE 1.6 mph /  2.6 km/h 8.0 mph /  12.9 km/h 59 % 0.0 in /  0 mm
14:12 17.2 °F /  -8.2 °C 8.9 °F /  -12.8 °C 1018.2 in /  34476.3 hPa ENE 1.6 mph /  2.6 km/h 8.0 mph /  12.9 km/h 58 % 0.0 in /  0 mm
14:17 17.4 °F /  -8.1 °C 8.3 °F /  -13.2 °C 1018.2 in /  34476.3 hPa NE 4.8 mph /  7.7 km/h 8.0 mph /  12.9 km/h 55 % 0.0 in /  0 mm
14:22 17.4 °F /  -8.1 °C 8.0 °F /  -13.3 °C 1018.2 in /  34476.3 hPa Calm   8.0 mph /  12.9 km/h 54 % 0.0 in /  0 mm
14:32 17.7 °F /  -7.9 °C 7.1 °F /  -13.8 °C 1018.2 in /  34476.3 hPa WNW 3.2 mph /  5.1 km/h 12.9 mph /  20.8 km/h 50 % 0.0 in /  0 mm
14:37 17.9 °F /  -7.8 °C 7.3 °F /  -13.7 °C 1018.2 in /  34476.3 hPa Calm   12.9 mph /  20.8 km/h 50 % 0.0 in /  0 mm
14:42 18.3 °F /  -7.6 °C 7.1 °F /  -13.8 °C 1018.2 in /  34476.3 hPa WSW 6.4 mph /  10.3 km/h 12.9 mph /  20.8 km/h 48 % 0.0 in /  0 mm
14:57 17.7 °F /  -7.9 °C 7.4 °F /  -13.7 °C 1018.2 in /  34476.3 hPa NW 6.4 mph /  10.3 km/h 11.3 mph /  18.2 km/h 51 % 0.0 in /  0 mm
15:02 17.3 °F /  -8.2 °C 7.1 °F /  -13.8 °C 1018.2 in /  34476.3 hPa Calm   12.9 mph /  20.8 km/h 51 % 0.0 in /  0 mm
15:07 17.3 °F /  -8.2 °C 7.3 °F /  -13.7 °C 1018.2 in /  34476.3 hPa WNW 3.2 mph /  5.1 km/h 12.9 mph /  20.8 km/h 52 % 0.0 in /  0 mm
15:12 17.3 °F /  -8.2 °C 7.1 °F /  -13.8 °C 1017.8 in /  34462.7 hPa NW 4.8 mph /  7.7 km/h 12.9 mph /  20.8 km/h 51 % 0.0 in /  0 mm
15:17 17.2 °F /  -8.2 °C 7.3 °F /  -13.7 °C 1017.8 in /  34462.7 hPa WNW 6.4 mph /  10.3 km/h 14.5 mph /  23.3 km/h 52 % 0.0 in /  0 mm
15:22 17.3 °F /  -8.2 °C 7.1 °F /  -13.8 °C 1017.8 in /  34462.7 hPa WSW 4.8 mph /  7.7 km/h 14.5 mph /  23.3 km/h 51 % 0.0 in /  0 mm
15:32 17.4 °F /  -8.1 °C 8.0 °F /  -13.3 °C 1017.8 in /  34462.7 hPa WNW 6.4 mph /  10.3 km/h 9.7 mph /  15.6 km/h 54 % 0.0 in /  0 mm
15:37 17.4 °F /  -8.1 °C 7.2 °F /  -13.8 °C 1017.8 in /  34462.7 hPa West 4.8 mph /  7.7 km/h 9.7 mph /  15.6 km/h 51 % 0.0 in /  0 mm
15:42 17.3 °F /  -8.2 °C 7.1 °F /  -13.8 °C 1017.8 in /  34462.7 hPa WNW 8.0 mph /  12.9 km/h 9.7 mph /  15.6 km/h 51 % 0.0 in /  0 mm
15:52 17.2 °F /  -8.2 °C 8.1 °F /  -13.3 °C 1017.8 in /  34462.7 hPa WNW 4.8 mph /  7.7 km/h 11.3 mph /  18.2 km/h 55 % 0.0 in /  0 mm
15:57 17.2 °F /  -8.2 °C 7.3 °F /  -13.7 °C 1017.8 in /  34462.7 hPa WNW 1.6 mph /  2.6 km/h 11.3 mph /  18.2 km/h 52 % 0.0 in /  0 mm
16:02 17.2 °F /  -8.2 °C 7.5 °F /  -13.6 °C 1017.5 in /  34452.6 hPa WNW 3.2 mph /  5.1 km/h 9.7 mph /  15.6 km/h 53 % 0.0 in /  0 mm
16:07 17.2 °F /  -8.2 °C 7.0 °F /  -13.9 °C 1017.5 in /  34452.6 hPa WSW 8.0 mph /  12.9 km/h 9.7 mph /  15.6 km/h 51 % 0.0 in /  0 mm
16:12 17.3 °F /  -8.2 °C 7.3 °F /  -13.7 °C 1017.5 in /  34452.6 hPa West 8.0 mph /  12.9 km/h 12.9 mph /  20.8 km/h 52 % 0.0 in /  0 mm
16:17 17.3 °F /  -8.2 °C 7.6 °F /  -13.6 °C 1017.5 in /  34452.6 hPa WNW 4.8 mph /  7.7 km/h 12.9 mph /  20.8 km/h 53 % 0.0 in /  0 mm
16:22 17.4 °F /  -8.1 °C 7.7 °F /  -13.5 °C 1017.5 in /  34452.6 hPa WNW 8.0 mph /  12.9 km/h 12.9 mph /  20.8 km/h 53 % 0.0 in /  0 mm
16:32 17.2 °F /  -8.2 °C 7.5 °F /  -13.6 °C 1017.5 in /  34452.6 hPa Calm   11.3 mph /  18.2 km/h 53 % 0.0 in /  0 mm
16:37 17.3 °F /  -8.2 °C 7.6 °F /  -13.6 °C 1017.5 in /  34452.6 hPa NNE 1.6 mph /  2.6 km/h 9.7 mph /  15.6 km/h 53 % 0.0 in /  0 mm
16:42 17.4 °F /  -8.1 °C 8.0 °F /  -13.3 °C 1017.5 in /  34452.6 hPa NW 3.2 mph /  5.1 km/h 11.3 mph /  18.2 km/h 54 % 0.0 in /  0 mm
16:52 17.4 °F /  -8.1 °C 7.4 °F /  -13.7 °C 1017.5 in /  34452.6 hPa West 6.4 mph /  10.3 km/h 11.3 mph /  18.2 km/h 52 % 0.0 in /  0 mm
16:57 17.4 °F /  -8.1 °C 7.7 °F /  -13.5 °C 1017.5 in /  34452.6 hPa WNW 4.8 mph /  7.7 km/h 11.3 mph /  18.2 km/h 53 % 0.0 in /  0 mm
17:02 17.4 °F /  -8.1 °C 7.7 °F /  -13.5 °C 1017.5 in /  34452.6 hPa WNW 4.8 mph /  7.7 km/h 9.7 mph /  15.6 km/h 53 % 0.0 in /  0 mm
17:07 17.3 °F /  -8.2 °C 7.3 °F /  -13.7 °C 1017.5 in /  34452.6 hPa West 8.0 mph /  12.9 km/h 11.3 mph /  18.2 km/h 52 % 0.0 in /  0 mm
17:12 17.2 °F /  -8.2 °C 7.3 °F /  -13.7 °C 1017.5 in /  34452.6 hPa West 4.8 mph /  7.7 km/h 11.3 mph /  18.2 km/h 52 % 0.0 in /  0 mm
17:17 17.3 °F /  -8.2 °C 7.6 °F /  -13.6 °C 1017.5 in /  34452.6 hPa West 3.2 mph /  5.1 km/h 11.3 mph /  18.2 km/h 53 % 0.0 in /  0 mm
17:22 17.3 °F /  -8.2 °C 7.3 °F /  -13.7 °C 1017.5 in /  34452.6 hPa WSW 1.6 mph /  2.6 km/h 11.3 mph /  18.2 km/h 52 % 0.0 in /  0 mm
17:32 17.3 °F /  -8.2 °C 7.9 °F /  -13.4 °C 1017.5 in /  34452.6 hPa West 4.8 mph /  7.7 km/h 11.3 mph /  18.2 km/h 54 % 0.0 in /  0 mm
17:37 17.2 °F /  -8.2 °C 7.5 °F /  -13.6 °C 1017.5 in /  34452.6 hPa West 1.6 mph /  2.6 km/h 11.3 mph /  18.2 km/h 53 % 0.0 in /  0 mm
17:42 17.4 °F /  -8.1 °C 8.0 °F /  -13.3 °C 1017.5 in /  34452.6 hPa NNW 3.2 mph /  5.1 km/h 9.7 mph /  15.6 km/h 54 % 0.0 in /  0 mm
17:47 17.4 °F /  -8.1 °C 8.0 °F /  -13.3 °C 1017.5 in /  34452.6 hPa WNW 4.8 mph /  7.7 km/h 6.4 mph /  10.3 km/h 54 % 0.0 in /  0 mm
17:52 17.6 °F /  -8 °C 7.9 °F /  -13.4 °C 1017.2 in /  34442.4 hPa Calm   6.4 mph /  10.3 km/h 53 % 0.0 in /  0 mm
17:57 17.9 °F /  -7.8 °C 7.6 °F /  -13.6 °C 1017.2 in /  34442.4 hPa West 6.4 mph /  10.3 km/h 6.4 mph /  10.3 km/h 51 % 0.0 in /  0 mm
18:02 18.0 °F /  -7.8 °C 7.7 °F /  -13.5 °C 1017.2 in /  34442.4 hPa WNW 3.2 mph /  5.1 km/h 17.7 mph /  28.5 km/h 51 % 0.0 in /  0 mm
18:07 18.1 °F /  -7.7 °C 7.8 °F /  -13.4 °C 1017.2 in /  34442.4 hPa West 8.0 mph /  12.9 km/h 17.7 mph /  28.5 km/h 51 % 0.0 in /  0 mm
18:12 17.9 °F /  -7.8 °C 7.9 °F /  -13.4 °C 1017.2 in /  34442.4 hPa WNW 4.8 mph /  7.7 km/h 16.1 mph /  25.9 km/h 52 % 0.0 in /  0 mm
18:17 17.6 °F /  -8 °C 7.3 °F /  -13.7 °C 1017.2 in /  34442.4 hPa WNW 4.8 mph /  7.7 km/h 16.1 mph /  25.9 km/h 51 % 0.0 in /  0 mm
18:22 17.4 °F /  -8.1 °C 7.7 °F /  -13.5 °C 1017.2 in /  34442.4 hPa West 4.8 mph /  7.7 km/h 16.1 mph /  25.9 km/h 53 % 0.0 in /  0 mm
18:32 17.2 °F /  -8.2 °C 7.8 °F /  -13.4 °C 1017.2 in /  34442.4 hPa WNW 4.8 mph /  7.7 km/h 11.3 mph /  18.2 km/h 54 % 0.0 in /  0 mm
18:42 17.2 °F /  -8.2 °C 8.1 °F /  -13.3 °C 1017.2 in /  34442.4 hPa NW 1.6 mph /  2.6 km/h 9.7 mph /  15.6 km/h 55 % 0.0 in /  0 mm
18:52 17.4 °F /  -8.1 °C 7.7 °F /  -13.5 °C 1017.2 in /  34442.4 hPa SW 1.6 mph /  2.6 km/h 8.0 mph /  12.9 km/h 53 % 0.0 in /  0 mm
18:57 17.3 °F /  -8.2 °C 7.6 °F /  -13.6 °C 1017.2 in /  34442.4 hPa WNW 6.4 mph /  10.3 km/h 6.4 mph /  10.3 km/h 53 % 0.0 in /  0 mm
19:02 17.2 °F /  -8.2 °C 7.8 °F /  -13.4 °C 1017.2 in /  34442.4 hPa WNW 8.0 mph /  12.9 km/h 12.9 mph /  20.8 km/h 54 % 0.0 in /  0 mm
19:07 17.1 °F /  -8.3 °C 7.7 °F /  -13.5 °C 1017.5 in /  34452.6 hPa West 4.8 mph /  7.7 km/h 12.9 mph /  20.8 km/h 54 % 0.0 in /  0 mm
19:12 17.0 °F /  -8.3 °C 7.9 °F /  -13.4 °C 1017.5 in /  34452.6 hPa West 4.8 mph /  7.7 km/h 12.9 mph /  20.8 km/h 55 % 0.0 in /  0 mm
19:17 16.9 °F /  -8.4 °C 7.8 °F /  -13.4 °C 1017.5 in /  34452.6 hPa West 6.4 mph /  10.3 km/h 9.7 mph /  15.6 km/h 55 % 0.0 in /  0 mm
19:22 16.9 °F /  -8.4 °C 7.8 °F /  -13.4 °C 1017.2 in /  34442.4 hPa West 8.0 mph /  12.9 km/h 9.7 mph /  15.6 km/h 55 % 0.0 in /  0 mm
19:27 16.8 °F /  -8.4 °C 8.0 °F /  -13.3 °C 1017.2 in /  34442.4 hPa WSW 4.8 mph /  7.7 km/h 12.9 mph /  20.8 km/h 56 % 0.0 in /  0 mm
19:32 16.7 °F /  -8.5 °C 7.9 °F /  -13.4 °C 1017.5 in /  34452.6 hPa WNW 4.8 mph /  7.7 km/h 12.9 mph /  20.8 km/h 56 % 0.0 in /  0 mm
19:42 16.6 °F /  -8.6 °C 7.8 °F /  -13.4 °C 1017.5 in /  34452.6 hPa West 4.8 mph /  7.7 km/h 11.3 mph /  18.2 km/h 56 % 0.0 in /  0 mm
19:52 16.3 °F /  -8.7 °C 7.5 °F /  -13.6 °C 1017.5 in /  34452.6 hPa West 4.8 mph /  7.7 km/h 11.3 mph /  18.2 km/h 56 % 0.0 in /  0 mm
19:57 16.3 °F /  -8.7 °C 7.8 °F /  -13.4 °C 1017.5 in /  34452.6 hPa WNW 6.4 mph /  10.3 km/h 11.3 mph /  18.2 km/h 57 % 0.0 in /  0 mm
20:02 16.2 °F /  -8.8 °C 7.7 °F /  -13.5 °C 1017.5 in /  34452.6 hPa WNW 4.8 mph /  7.7 km/h 12.9 mph /  20.8 km/h 57 % 0.0 in /  0 mm
20:12 15.9 °F /  -8.9 °C 7.6 °F /  -13.6 °C 1017.5 in /  34452.6 hPa WNW 4.8 mph /  7.7 km/h 12.9 mph /  20.8 km/h 58 % 0.0 in /  0 mm
20:17 15.8 °F /  -9 °C 7.8 °F /  -13.4 °C 1017.5 in /  34452.6 hPa WNW 4.8 mph /  7.7 km/h 11.3 mph /  18.2 km/h 59 % 0.0 in /  0 mm
20:22 15.7 °F /  -9.1 °C 7.7 °F /  -13.5 °C 1017.5 in /  34452.6 hPa West 1.6 mph /  2.6 km/h 11.3 mph /  18.2 km/h 59 % 0.0 in /  0 mm
20:32 15.4 °F /  -9.2 °C 7.7 °F /  -13.5 °C 1017.5 in /  34452.6 hPa WNW 3.2 mph /  5.1 km/h 9.7 mph /  15.6 km/h 60 % 0.0 in /  0 mm
20:37 15.3 °F /  -9.3 °C 7.8 °F /  -13.4 °C 1017.8 in /  34462.7 hPa West 1.6 mph /  2.6 km/h 6.4 mph /  10.3 km/h 61 % 0.0 in /  0 mm
20:42 15.1 °F /  -9.4 °C 7.6 °F /  -13.6 °C 1017.8 in /  34462.7 hPa WSW 1.6 mph /  2.6 km/h 6.4 mph /  10.3 km/h 61 % 0.0 in /  0 mm
20:47 14.8 °F /  -9.6 °C 7.6 °F /  -13.6 °C 1017.8 in /  34462.7 hPa Calm   6.4 mph /  10.3 km/h 62 % 0.0 in /  0 mm
20:52 14.7 °F /  -9.6 °C 7.7 °F /  -13.5 °C 1017.8 in /  34462.7 hPa Calm   6.4 mph /  10.3 km/h 63 % 0.0 in /  0 mm
21:02 14.3 °F /  -9.8 °C 7.6 °F /  -13.6 °C 1017.8 in /  34462.7 hPa West 1.6 mph /  2.6 km/h 4.8 mph /  7.7 km/h 64 % 0.0 in /  0 mm
21:07 14.2 °F /  -9.9 °C 7.7 °F /  -13.5 °C 1017.8 in /  34462.7 hPa WSW 1.6 mph /  2.6 km/h 4.8 mph /  7.7 km/h 65 % 0.0 in /  0 mm
21:12 14.1 °F /  -9.9 °C 7.6 °F /  -13.6 °C 1017.8 in /  34462.7 hPa Calm   4.8 mph /  7.7 km/h 65 % 0.0 in /  0 mm
21:17 14.0 °F /  -10 °C 7.5 °F /  -13.6 °C 1017.8 in /  34462.7 hPa WSW 1.6 mph /  2.6 km/h 3.2 mph /  5.1 km/h 65 % 0.0 in /  0 mm
21:22 13.9 °F /  -10.1 °C 7.4 °F /  -13.7 °C 1017.8 in /  34462.7 hPa Calm   3.2 mph /  5.1 km/h 65 % 0.0 in /  0 mm
21:32 13.6 °F /  -10.2 °C 7.6 °F /  -13.6 °C 1018.2 in /  34476.3 hPa NNW 3.2 mph /  5.1 km/h 6.4 mph /  10.3 km/h 67 % 0.0 in /  0 mm
21:42 13.2 °F /  -10.4 °C 7.4 °F /  -13.7 °C 1018.2 in /  34476.3 hPa NW 1.6 mph /  2.6 km/h 6.4 mph /  10.3 km/h 68 % 0.0 in /  0 mm
21:47 13.3 °F /  -10.4 °C 7.3 °F /  -13.7 °C 1018.2 in /  34476.3 hPa NW 1.6 mph /  2.6 km/h 4.8 mph /  7.7 km/h 67 % 0.0 in /  0 mm
21:52 13.1 °F /  -10.5 °C 7.3 °F /  -13.7 °C 1018.5 in /  34486.4 hPa WNW 1.6 mph /  2.6 km/h 6.4 mph /  10.3 km/h 68 % 0.0 in /  0 mm
22:02 12.8 °F /  -10.7 °C 7.3 °F /  -13.7 °C 1018.5 in /  34486.4 hPa NW 3.2 mph /  5.1 km/h 4.8 mph /  7.7 km/h 69 % 0.0 in /  0 mm
22:12 12.7 °F /  -10.7 °C 7.2 °F /  -13.8 °C 1018.5 in /  34486.4 hPa NW 4.8 mph /  7.7 km/h 4.8 mph /  7.7 km/h 69 % 0.0 in /  0 mm
22:17 12.7 °F /  -10.7 °C 6.9 °F /  -13.9 °C 1018.8 in /  34496.6 hPa NNW 1.6 mph /  2.6 km/h 4.8 mph /  7.7 km/h 68 % 0.0 in /  0 mm
22:22 12.6 °F /  -10.8 °C 7.1 °F /  -13.8 °C 1018.8 in /  34496.6 hPa NW 3.2 mph /  5.1 km/h 4.8 mph /  7.7 km/h 69 % 0.0 in /  0 mm
22:32 12.4 °F /  -10.9 °C 6.9 °F /  -13.9 °C 1018.8 in /  34496.6 hPa NW 1.6 mph /  2.6 km/h 4.8 mph /  7.7 km/h 69 % 0.0 in /  0 mm
22:37 12.4 °F /  -10.9 °C 6.9 °F /  -13.9 °C 1018.5 in /  34486.4 hPa NW 3.2 mph /  5.1 km/h 4.8 mph /  7.7 km/h 69 % 0.0 in /  0 mm
22:42 12.3 °F /  -10.9 °C 6.8 °F /  -14 °C 1018.5 in /  34486.4 hPa NW 1.6 mph /  2.6 km/h 4.8 mph /  7.7 km/h 69 % 0.0 in /  0 mm
22:47 12.2 °F /  -11 °C 6.9 °F /  -13.9 °C 1018.5 in /  34486.4 hPa NW 3.2 mph /  5.1 km/h 4.8 mph /  7.7 km/h 70 % 0.0 in /  0 mm
22:52 12.1 °F /  -11.1 °C 6.8 °F /  -14 °C 1018.5 in /  34486.4 hPa WNW 4.8 mph /  7.7 km/h 6.4 mph /  10.3 km/h 70 % 0.0 in /  0 mm
22:57 11.9 °F /  -11.2 °C 6.6 °F /  -14.1 °C 1018.8 in /  34496.6 hPa NNW 1.6 mph /  2.6 km/h 6.4 mph /  10.3 km/h 70 % 0.0 in /  0 mm
23:02 11.8 °F /  -11.2 °C 6.7 °F /  -14.1 °C 1018.8 in /  34496.6 hPa NNW 1.6 mph /  2.6 km/h 6.4 mph /  10.3 km/h 71 % 0.0 in /  0 mm
23:12 11.4 °F /  -11.4 °C 6.5 °F /  -14.2 °C 1018.8 in /  34496.6 hPa NW 3.2 mph /  5.1 km/h 4.8 mph /  7.7 km/h 72 % 0.0 in /  0 mm
23:17 11.3 °F /  -11.5 °C 6.4 °F /  -14.2 °C 1018.8 in /  34496.6 hPa NW 3.2 mph /  5.1 km/h 3.2 mph /  5.1 km/h 72 % 0.0 in /  0 mm
23:22 11.3 °F /  -11.5 °C 6.4 °F /  -14.2 °C 1018.8 in /  34496.6 hPa NW 4.8 mph /  7.7 km/h 4.8 mph /  7.7 km/h 72 % 0.0 in /  0 mm
23:27 11.2 °F /  -11.6 °C 6.3 °F /  -14.3 °C 1018.8 in /  34496.6 hPa NW 1.6 mph /  2.6 km/h 4.8 mph /  7.7 km/h 72 % 0.0 in /  0 mm
23:32 11.2 °F /  -11.6 °C 6.1 °F /  -14.4 °C 1018.8 in /  34496.6 hPa NW 4.8 mph /  7.7 km/h 4.8 mph /  7.7 km/h 71 % 0.0 in /  0 mm
23:37 11.2 °F /  -11.6 °C 6.1 °F /  -14.4 °C 1018.8 in /  34496.6 hPa NW 3.2 mph /  5.1 km/h 6.4 mph /  10.3 km/h 71 % 0.0 in /  0 mm
23:42 11.1 °F /  -11.6 °C 6.0 °F /  -14.4 °C 1018.8 in /  34496.6 hPa NW 1.6 mph /  2.6 km/h 6.4 mph /  10.3 km/h 71 % 0.0 in /  0 mm
23:47 11.1 °F /  -11.6 °C 6.0 °F /  -14.4 °C 1018.8 in /  34496.6 hPa Calm   6.4 mph /  10.3 km/h 71 % 0.0 in /  0 mm
23:52 10.9 °F /  -11.7 °C 6.1 °F /  -14.4 °C 1018.8 in /  34496.6 hPa Calm   4.8 mph /  7.7 km/h 72 % 0.0 in /  0 mm
Meteo18
Compliments of Weather Underground - 4 mb

Script developed by  Jim McMurry - jmcmurry@mwt.net Adapted for the template by  Wim van der Kuil - Leuven-Template.eu

You find our weather info also at:

European Weather Network

Weather Underground

Equipment we use:

Weather-station
Davis Vue

Weather-program
Meteobridge

Weather-server
Raspberry PI 2 B+

Provider
1 and 1

Davis Vue

Meteobridge

Raspberry PI 2 B+

1 and 1